Sertosa Veintisiete — EAJZ — position and weather

sailwx.info

Track history (hours):
 
Tides and Currents Weather Stations Pressure Air Temp Water Temp Dewpoint Dewpoint Depression Visibility Wind Speed Wind Dir Waves Ship Positions

Sertosa Veintisiete

Last reported at 2014-Aug-21 16:29 UTC. Time now 2014-Aug-27 19:19 UTC.
Position N 36°11' W 005°24'.

Length 30 m; draft 5.5 m.

Type: Tug. MMSI: 224337000.

Date/timePositionNaut miles runAvg speedWind from/ knotsBaromVisibWave heightAir tempDewpointWater temp
2014-Aug-21 16:29N 36°11' W 005°24'0 0.1
2014-Aug-21 14:20N 36°11' W 005°24'0 0.1
2014-Aug-21 13:07N 36°11' W 005°24'0 0.5
2014-Aug-21 12:28N 36°10' W 005°23'1 0.0
2014-Aug-20 22:32N 36°11' W 005°24'1 0.5
2014-Aug-20 20:30N 36°10' W 005°23'0 0.0
2014-Aug-20 19:31N 36°10' W 005°23'13 0.4
2014-Aug-19 13:33N 35°58' W 005°20'4 4.3
2014-Aug-19 12:34N 35°54' W 005°19'0 0.1
2014-Aug-19 11:33N 35°54' W 005°19'0 0.0
2014-Aug-19 10:33N 35°54' W 005°19'0 0.0
2014-Aug-19 09:34N 35°54' W 005°19'0 0.0
2014-Aug-19 08:33N 35°54' W 005°19'0 0.5
2014-Aug-19 07:34N 35°54' W 005°18'0 0.5
2014-Aug-19 06:33N 35°54' W 005°19'0 0.0
2014-Aug-19 05:34N 35°54' W 005°19'  
Track history (hours):
 
Tides and Currents Weather Stations Pressure Air Temp Water Temp Dewpoint Dewpoint Depression Visibility Wind Speed Wind Dir Waves Ship Positions

Sertosa Veintisiete

Last reported at 2014-Aug-21 16:29 UTC. Time now 2014-Aug-27 19:19 UTC.
Position N 36°11' W 005°24'.

Length 30 m; draft 5.5 m.

Type: Tug. MMSI: 224337000.

Date/timePositionNaut miles runAvg speedWind from/ knotsBaromVisibWave heightAir tempDewpointWater temp
2014-Aug-21 16:29N 36°11' W 005°24'0 0.1
2014-Aug-21 14:20N 36°11' W 005°24'0 0.1
2014-Aug-21 13:07N 36°11' W 005°24'0 0.5
2014-Aug-21 12:28N 36°10' W 005°23'1 0.0
2014-Aug-20 22:32N 36°11' W 005°24'1 0.5
2014-Aug-20 20:30N 36°10' W 005°23'0 0.0
2014-Aug-20 19:31N 36°10' W 005°23'13 0.4
2014-Aug-19 13:33N 35°58' W 005°20'4 4.3
2014-Aug-19 12:34N 35°54' W 005°19'0 0.1
2014-Aug-19 11:33N 35°54' W 005°19'0 0.0
2014-Aug-19 10:33N 35°54' W 005°19'0 0.0
2014-Aug-19 09:34N 35°54' W 005°19'0 0.0
2014-Aug-19 08:33N 35°54' W 005°19'0 0.5
2014-Aug-19 07:34N 35°54' W 005°18'0 0.5
2014-Aug-19 06:33N 35°54' W 005°19'0 0.0
2014-Aug-19 05:34N 35°54' W 005°19'  

Dump ship's entire track history